sensor_id;sensor_type;location;lat;lon;timestamp;P1;durP1;ratioP1;P2;durP2;ratioP2
57730;SDS011;43570;47.476;19.040;2022-11-22T00:01:03;120.65;;;51.25;;
57730;SDS011;43570;47.476;19.040;2022-11-22T00:03:29;94.03;;;48.53;;
57730;SDS011;43570;47.476;19.040;2022-11-22T00:05:55;69.20;;;44.60;;
57730;SDS011;43570;47.476;19.040;2022-11-22T00:08:20;175.00;;;56.03;;
57730;SDS011;43570;47.476;19.040;2022-11-22T00:10:48;79.45;;;44.08;;
57730;SDS011;43570;47.476;19.040;2022-11-22T00:13:15;70.12;;;42.75;;
57730;SDS011;43570;47.476;19.040;2022-11-22T00:15:40;82.07;;;43.97;;
57730;SDS011;43570;47.476;19.040;2022-11-22T00:18:06;100.80;;;46.20;;
57730;SDS011;43570;47.476;19.040;2022-11-22T00:20:32;59.28;;;39.65;;
57730;SDS011;43570;47.476;19.040;2022-11-22T00:22:57;48.97;;;36.90;;
57730;SDS011;43570;47.476;19.040;2022-11-22T00:25:23;62.60;;;39.80;;
57730;SDS011;43570;47.476;19.040;2022-11-22T00:27:48;84.28;;;43.72;;
57730;SDS011;43570;47.476;19.040;2022-11-22T00:30:14;69.40;;;41.03;;
57730;SDS011;43570;47.476;19.040;2022-11-22T00:32:39;121.15;;;47.33;;
57730;SDS011;43570;47.476;19.040;2022-11-22T00:35:05;69.03;;;42.05;;
57730;SDS011;43570;47.476;19.040;2022-11-22T00:37:30;64.22;;;41.03;;
57730;SDS011;43570;47.476;19.040;2022-11-22T00:39:56;149.60;;;49.45;;
57730;SDS011;43570;47.476;19.040;2022-11-22T00:42:21;159.68;;;54.17;;
57730;SDS011;43570;47.476;19.040;2022-11-22T00:44:46;109.78;;;45.97;;
57730;SDS011;43570;47.476;19.040;2022-11-22T00:47:12;60.78;;;40.15;;
57730;SDS011;43570;47.476;19.040;2022-11-22T00:49:37;93.53;;;45.15;;
57730;SDS011;43570;47.476;19.040;2022-11-22T00:52:02;100.55;;;47.58;;
57730;SDS011;43570;47.476;19.040;2022-11-22T00:54:28;80.10;;;45.42;;
57730;SDS011;43570;47.476;19.040;2022-11-22T00:56:53;111.65;;;47.90;;
57730;SDS011;43570;47.476;19.040;2022-11-22T00:59:19;76.45;;;39.78;;
57730;SDS011;43570;47.476;19.040;2022-11-22T01:01:44;60.63;;;37.05;;
57730;SDS011;43570;47.476;19.040;2022-11-22T01:04:09;62.35;;;37.80;;
57730;SDS011;43570;47.476;19.040;2022-11-22T01:06:35;137.43;;;50.92;;
57730;SDS011;43570;47.476;19.040;2022-11-22T01:09:00;62.88;;;36.15;;
57730;SDS011;43570;47.476;19.040;2022-11-22T01:11:26;115.93;;;44.38;;
57730;SDS011;43570;47.476;19.040;2022-11-22T01:13:51;61.95;;;38.35;;
57730;SDS011;43570;47.476;19.040;2022-11-22T01:16:16;75.50;;;38.95;;
57730;SDS011;43570;47.476;19.040;2022-11-22T01:18:42;61.15;;;38.30;;
57730;SDS011;43570;47.476;19.040;2022-11-22T01:21:07;60.80;;;36.92;;
57730;SDS011;43570;47.476;19.040;2022-11-22T01:23:33;53.50;;;37.75;;
57730;SDS011;43570;47.476;19.040;2022-11-22T01:25:59;56.72;;;38.30;;
57730;SDS011;43570;47.476;19.040;2022-11-22T01:28:25;67.05;;;39.63;;
57730;SDS011;43570;47.476;19.040;2022-11-22T01:30:51;66.78;;;41.45;;
57730;SDS011;43570;47.476;19.040;2022-11-22T01:33:17;59.13;;;40.28;;
57730;SDS011;43570;47.476;19.040;2022-11-22T01:35:43;93.62;;;45.45;;
57730;SDS011;43570;47.476;19.040;2022-11-22T01:38:08;123.07;;;49.50;;
57730;SDS011;43570;47.476;19.040;2022-11-22T01:40:34;58.03;;;37.95;;
57730;SDS011;43570;47.476;19.040;2022-11-22T01:43:00;57.38;;;37.78;;
57730;SDS011;43570;47.476;19.040;2022-11-22T01:47:57;258.50;;;64.97;;
57730;SDS011;43570;47.476;19.040;2022-11-22T01:50:24;64.95;;;36.92;;
57730;SDS011;43570;47.476;19.040;2022-11-22T01:52:50;61.40;;;38.92;;
57730;SDS011;43570;47.476;19.040;2022-11-22T01:55:16;70.07;;;41.28;;
57730;SDS011;43570;47.476;19.040;2022-11-22T01:57:42;107.53;;;45.72;;
57730;SDS011;43570;47.476;19.040;2022-11-22T02:00:13;74.87;;;42.40;;
57730;SDS011;43570;47.476;19.040;2022-11-22T02:02:40;78.93;;;43.65;;
57730;SDS011;43570;47.476;19.040;2022-11-22T02:05:09;101.28;;;44.95;;
57730;SDS011;43570;47.476;19.040;2022-11-22T02:07:40;157.30;;;53.10;;
57730;SDS011;43570;47.476;19.040;2022-11-22T02:10:09;433.25;;;92.37;;
57730;SDS011;43570;47.476;19.040;2022-11-22T02:12:34;331.13;;;72.90;;
57730;SDS011;43570;47.476;19.040;2022-11-22T02:15:00;521.40;;;93.78;;
57730;SDS011;43570;47.476;19.040;2022-11-22T02:17:26;137.70;;;49.42;;
57730;SDS011;43570;47.476;19.040;2022-11-22T02:19:52;113.22;;;45.33;;
57730;SDS011;43570;47.476;19.040;2022-11-22T02:22:31;93.50;;;43.33;;
57730;SDS011;43570;47.476;19.040;2022-11-22T02:27:51;80.18;;;39.95;;
57730;SDS011;43570;47.476;19.040;2022-11-22T02:30:17;70.37;;;38.83;;
57730;SDS011;43570;47.476;19.040;2022-11-22T02:32:42;81.55;;;41.55;;
57730;SDS011;43570;47.476;19.040;2022-11-22T02:35:27;94.20;;;43.13;;
57730;SDS011;43570;47.476;19.040;2022-11-22T02:37:55;226.65;;;57.80;;
57730;SDS011;43570;47.476;19.040;2022-11-22T02:40:22;105.95;;;44.72;;
57730;SDS011;43570;47.476;19.040;2022-11-22T02:42:50;353.45;;;71.37;;
57730;SDS011;43570;47.476;19.040;2022-11-22T02:45:17;224.80;;;60.17;;
57730;SDS011;43570;47.476;19.040;2022-11-22T02:47:42;78.93;;;39.78;;
57730;SDS011;43570;47.476;19.040;2022-11-22T02:50:07;79.30;;;41.20;;
57730;SDS011;43570;47.476;19.040;2022-11-22T02:52:33;84.70;;;42.13;;
57730;SDS011;43570;47.476;19.040;2022-11-22T02:54:58;80.03;;;40.35;;
57730;SDS011;43570;47.476;19.040;2022-11-22T02:57:25;81.03;;;42.88;;
57730;SDS011;43570;47.476;19.040;2022-11-22T02:59:50;81.97;;;43.67;;
57730;SDS011;43570;47.476;19.040;2022-11-22T03:02:16;76.95;;;44.80;;
57730;SDS011;43570;47.476;19.040;2022-11-22T03:04:41;67.37;;;41.53;;
57730;SDS011;43570;47.476;19.040;2022-11-22T03:07:06;77.95;;;44.67;;
57730;SDS011;43570;47.476;19.040;2022-11-22T03:09:32;70.18;;;41.90;;
57730;SDS011;43570;47.476;19.040;2022-11-22T03:11:57;72.25;;;41.75;;
57730;SDS011;43570;47.476;19.040;2022-11-22T03:14:23;73.68;;;41.13;;
57730;SDS011;43570;47.476;19.040;2022-11-22T03:16:48;70.43;;;41.03;;
57730;SDS011;43570;47.476;19.040;2022-11-22T03:19:14;66.97;;;38.53;;
57730;SDS011;43570;47.476;19.040;2022-11-22T03:21:39;73.93;;;41.53;;
57730;SDS011;43570;47.476;19.040;2022-11-22T03:24:06;75.78;;;41.22;;
57730;SDS011;43570;47.476;19.040;2022-11-22T03:26:32;70.68;;;39.95;;
57730;SDS011;43570;47.476;19.040;2022-11-22T03:28:57;73.12;;;41.53;;
57730;SDS011;43570;47.476;19.040;2022-11-22T03:31:23;71.80;;;41.03;;
57730;SDS011;43570;47.476;19.040;2022-11-22T03:33:49;68.97;;;40.47;;
57730;SDS011;43570;47.476;19.040;2022-11-22T03:36:14;69.82;;;41.72;;
57730;SDS011;43570;47.476;19.040;2022-11-22T03:38:40;70.62;;;42.95;;
57730;SDS011;43570;47.476;19.040;2022-11-22T03:41:05;70.45;;;41.83;;
57730;SDS011;43570;47.476;19.040;2022-11-22T03:43:30;67.40;;;40.47;;
57730;SDS011;43570;47.476;19.040;2022-11-22T03:45:56;60.05;;;39.15;;
57730;SDS011;43570;47.476;19.040;2022-11-22T03:48:21;56.03;;;38.58;;
57730;SDS011;43570;47.476;19.040;2022-11-22T03:50:46;50.92;;;37.08;;
57730;SDS011;43570;47.476;19.040;2022-11-22T03:53:12;51.37;;;36.78;;
57730;SDS011;43570;47.476;19.040;2022-11-22T03:55:38;51.28;;;35.38;;
57730;SDS011;43570;47.476;19.040;2022-11-22T03:58:03;47.97;;;36.33;;
57730;SDS011;43570;47.476;19.040;2022-11-22T04:00:29;47.97;;;38.60;;
57730;SDS011;43570;47.476;19.040;2022-11-22T04:02:55;43.50;;;35.40;;
57730;SDS011;43570;47.476;19.040;2022-11-22T04:05:20;43.33;;;35.28;;
57730;SDS011;43570;47.476;19.040;2022-11-22T04:07:46;37.95;;;32.53;;
57730;SDS011;43570;47.476;19.040;2022-11-22T04:10:11;37.15;;;32.08;;
57730;SDS011;43570;47.476;19.040;2022-11-22T04:12:36;41.80;;;34.47;;
57730;SDS011;43570;47.476;19.040;2022-11-22T04:15:02;40.30;;;33.55;;
57730;SDS011;43570;47.476;19.040;2022-11-22T04:17:35;42.20;;;35.33;;
57730;SDS011;43570;47.476;19.040;2022-11-22T04:20:04;42.65;;;35.35;;
57730;SDS011;43570;47.476;19.040;2022-11-22T04:22:56;38.83;;;32.17;;
57730;SDS011;43570;47.476;19.040;2022-11-22T04:25:26;38.38;;;31.85;;
57730;SDS011;43570;47.476;19.040;2022-11-22T04:27:52;36.30;;;30.98;;
57730;SDS011;43570;47.476;19.040;2022-11-22T04:30:18;36.88;;;30.45;;
57730;SDS011;43570;47.476;19.040;2022-11-22T04:32:43;33.67;;;29.80;;
57730;SDS011;43570;47.476;19.040;2022-11-22T04:35:15;34.30;;;29.45;;
57730;SDS011;43570;47.476;19.040;2022-11-22T04:37:42;31.95;;;27.90;;
57730;SDS011;43570;47.476;19.040;2022-11-22T04:40:15;28.23;;;25.20;;
57730;SDS011;43570;47.476;19.040;2022-11-22T04:42:41;28.70;;;25.58;;
57730;SDS011;43570;47.476;19.040;2022-11-22T04:45:25;29.27;;;25.92;;
57730;SDS011;43570;47.476;19.040;2022-11-22T04:47:50;28.52;;;25.20;;
57730;SDS011;43570;47.476;19.040;2022-11-22T04:50:25;26.33;;;23.62;;
57730;SDS011;43570;47.476;19.040;2022-11-22T04:53:10;25.88;;;23.12;;
57730;SDS011;43570;47.476;19.040;2022-11-22T04:55:36;25.98;;;22.83;;
57730;SDS011;43570;47.476;19.040;2022-11-22T04:58:01;25.52;;;22.80;;
57730;SDS011;43570;47.476;19.040;2022-11-22T05:00:27;25.75;;;22.98;;
57730;SDS011;43570;47.476;19.040;2022-11-22T05:02:54;25.20;;;22.48;;
57730;SDS011;43570;47.476;19.040;2022-11-22T05:05:19;26.80;;;23.92;;
57730;SDS011;43570;47.476;19.040;2022-11-22T05:07:45;24.58;;;21.98;;
57730;SDS011;43570;47.476;19.040;2022-11-22T05:10:10;23.87;;;21.30;;
57730;SDS011;43570;47.476;19.040;2022-11-22T05:12:36;26.23;;;22.50;;
57730;SDS011;43570;47.476;19.040;2022-11-22T05:15:01;25.55;;;22.92;;
57730;SDS011;43570;47.476;19.040;2022-11-22T05:17:27;24.40;;;21.80;;
57730;SDS011;43570;47.476;19.040;2022-11-22T05:19:52;25.75;;;23.00;;
57730;SDS011;43570;47.476;19.040;2022-11-22T05:22:18;26.27;;;23.48;;
57730;SDS011;43570;47.476;19.040;2022-11-22T05:25:09;24.70;;;22.10;;
57730;SDS011;43570;47.476;19.040;2022-11-22T05:27:34;24.00;;;21.55;;
57730;SDS011;43570;47.476;19.040;2022-11-22T05:30:00;24.73;;;22.20;;
57730;SDS011;43570;47.476;19.040;2022-11-22T05:32:25;24.02;;;21.42;;
57730;SDS011;43570;47.476;19.040;2022-11-22T05:34:50;23.98;;;21.12;;
57730;SDS011;43570;47.476;19.040;2022-11-22T05:37:16;21.90;;;19.50;;
57730;SDS011;43570;47.476;19.040;2022-11-22T05:39:41;24.87;;;21.45;;
57730;SDS011;43570;47.476;19.040;2022-11-22T05:42:07;23.55;;;20.35;;
57730;SDS011;43570;47.476;19.040;2022-11-22T05:44:32;24.83;;;22.02;;
57730;SDS011;43570;47.476;19.040;2022-11-22T05:46:58;24.98;;;22.27;;
57730;SDS011;43570;47.476;19.040;2022-11-22T05:49:24;30.30;;;27.10;;
57730;SDS011;43570;47.476;19.040;2022-11-22T05:51:49;25.98;;;22.35;;
57730;SDS011;43570;47.476;19.040;2022-11-22T05:54:15;25.73;;;22.37;;
57730;SDS011;43570;47.476;19.040;2022-11-22T05:56:40;25.60;;;21.83;;
57730;SDS011;43570;47.476;19.040;2022-11-22T05:59:06;25.08;;;22.10;;
57730;SDS011;43570;47.476;19.040;2022-11-22T06:01:31;32.63;;;27.15;;
57730;SDS011;43570;47.476;19.040;2022-11-22T06:03:56;25.02;;;22.37;;
57730;SDS011;43570;47.476;19.040;2022-11-22T06:06:22;26.33;;;23.45;;
57730;SDS011;43570;47.476;19.040;2022-11-22T06:08:47;25.83;;;22.98;;
57730;SDS011;43570;47.476;19.040;2022-11-22T06:11:13;27.60;;;22.87;;
57730;SDS011;43570;47.476;19.040;2022-11-22T06:13:43;27.17;;;21.95;;
57730;SDS011;43570;47.476;19.040;2022-11-22T06:16:09;25.35;;;22.67;;
57730;SDS011;43570;47.476;19.040;2022-11-22T06:18:35;25.12;;;22.05;;
57730;SDS011;43570;47.476;19.040;2022-11-22T06:21:01;27.13;;;22.23;;
57730;SDS011;43570;47.476;19.040;2022-11-22T06:23:28;25.30;;;21.37;;
57730;SDS011;43570;47.476;19.040;2022-11-22T06:26:04;24.40;;;21.75;;
57730;SDS011;43570;47.476;19.040;2022-11-22T06:28:32;26.83;;;22.67;;
57730;SDS011;43570;47.476;19.040;2022-11-22T06:31:02;27.52;;;22.37;;
57730;SDS011;43570;47.476;19.040;2022-11-22T06:33:36;26.00;;;21.80;;
57730;SDS011;43570;47.476;19.040;2022-11-22T06:36:02;24.80;;;21.62;;
57730;SDS011;43570;47.476;19.040;2022-11-22T06:38:28;25.75;;;21.55;;
57730;SDS011;43570;47.476;19.040;2022-11-22T06:40:58;26.85;;;22.02;;
57730;SDS011;43570;47.476;19.040;2022-11-22T06:43:25;23.62;;;20.50;;
57730;SDS011;43570;47.476;19.040;2022-11-22T06:45:54;22.92;;;19.55;;
57730;SDS011;43570;47.476;19.040;2022-11-22T06:48:23;25.37;;;21.70;;
57730;SDS011;43570;47.476;19.040;2022-11-22T06:50:49;22.35;;;19.90;;
57730;SDS011;43570;47.476;19.040;2022-11-22T06:53:14;22.27;;;19.87;;
57730;SDS011;43570;47.476;19.040;2022-11-22T06:55:40;22.15;;;19.83;;
57730;SDS011;43570;47.476;19.040;2022-11-22T06:58:05;23.95;;;19.75;;
57730;SDS011;43570;47.476;19.040;2022-11-22T07:00:30;24.83;;;19.92;;
57730;SDS011;43570;47.476;19.040;2022-11-22T07:02:56;22.83;;;19.60;;
57730;SDS011;43570;47.476;19.040;2022-11-22T07:05:21;25.05;;;21.33;;
57730;SDS011;43570;47.476;19.040;2022-11-22T07:07:46;26.15;;;21.80;;
57730;SDS011;43570;47.476;19.040;2022-11-22T07:10:12;28.27;;;23.02;;
57730;SDS011;43570;47.476;19.040;2022-11-22T07:12:37;25.48;;;22.45;;
57730;SDS011;43570;47.476;19.040;2022-11-22T07:15:02;27.65;;;24.25;;
57730;SDS011;43570;47.476;19.040;2022-11-22T07:17:28;28.98;;;24.02;;
57730;SDS011;43570;47.476;19.040;2022-11-22T07:19:53;26.37;;;23.23;;
57730;SDS011;43570;47.476;19.040;2022-11-22T07:22:19;27.52;;;22.95;;
57730;SDS011;43570;47.476;19.040;2022-11-22T07:24:44;28.02;;;23.65;;
57730;SDS011;43570;47.476;19.040;2022-11-22T07:27:09;28.95;;;22.90;;
57730;SDS011;43570;47.476;19.040;2022-11-22T07:29:35;26.10;;;22.35;;
57730;SDS011;43570;47.476;19.040;2022-11-22T07:32:00;29.02;;;23.33;;
57730;SDS011;43570;47.476;19.040;2022-11-22T07:34:25;25.60;;;22.73;;
57730;SDS011;43570;47.476;19.040;2022-11-22T07:36:51;27.55;;;23.12;;
57730;SDS011;43570;47.476;19.040;2022-11-22T07:39:19;27.30;;;23.10;;
57730;SDS011;43570;47.476;19.040;2022-11-22T07:41:45;30.12;;;23.67;;
57730;SDS011;43570;47.476;19.040;2022-11-22T07:44:10;28.55;;;23.02;;
57730;SDS011;43570;47.476;19.040;2022-11-22T07:46:35;26.00;;;22.33;;
57730;SDS011;43570;47.476;19.040;2022-11-22T07:49:01;27.08;;;21.87;;
57730;SDS011;43570;47.476;19.040;2022-11-22T07:51:27;26.65;;;22.85;;
57730;SDS011;43570;47.476;19.040;2022-11-22T07:53:53;25.30;;;22.17;;
57730;SDS011;43570;47.476;19.040;2022-11-22T07:56:19;25.33;;;21.90;;
57730;SDS011;43570;47.476;19.040;2022-11-22T07:58:44;27.50;;;21.60;;
57730;SDS011;43570;47.476;19.040;2022-11-22T08:01:10;27.42;;;23.00;;
57730;SDS011;43570;47.476;19.040;2022-11-22T08:03:41;25.35;;;21.08;;
57730;SDS011;43570;47.476;19.040;2022-11-22T08:06:07;24.77;;;21.77;;
57730;SDS011;43570;47.476;19.040;2022-11-22T08:08:34;26.77;;;21.23;;
57730;SDS011;43570;47.476;19.040;2022-11-22T08:11:00;26.17;;;21.87;;
57730;SDS011;43570;47.476;19.040;2022-11-22T08:13:26;26.12;;;21.73;;
57730;SDS011;43570;47.476;19.040;2022-11-22T08:15:51;25.75;;;21.23;;
57730;SDS011;43570;47.476;19.040;2022-11-22T08:18:17;28.12;;;21.08;;
57730;SDS011;43570;47.476;19.040;2022-11-22T08:20:42;25.77;;;20.60;;
57730;SDS011;43570;47.476;19.040;2022-11-22T08:23:08;26.20;;;21.00;;
57730;SDS011;43570;47.476;19.040;2022-11-22T08:25:33;27.55;;;21.23;;
57730;SDS011;43570;47.476;19.040;2022-11-22T08:27:58;25.25;;;20.77;;
57730;SDS011;43570;47.476;19.040;2022-11-22T08:30:24;24.42;;;19.80;;
57730;SDS011;43570;47.476;19.040;2022-11-22T08:32:49;23.45;;;20.10;;
57730;SDS011;43570;47.476;19.040;2022-11-22T08:35:15;24.48;;;20.98;;
57730;SDS011;43570;47.476;19.040;2022-11-22T08:37:41;24.00;;;19.42;;
57730;SDS011;43570;47.476;19.040;2022-11-22T08:40:06;24.77;;;19.67;;
57730;SDS011;43570;47.476;19.040;2022-11-22T08:42:32;23.65;;;19.92;;
57730;SDS011;43570;47.476;19.040;2022-11-22T08:44:58;25.17;;;20.05;;
57730;SDS011;43570;47.476;19.040;2022-11-22T08:47:23;24.48;;;20.02;;
57730;SDS011;43570;47.476;19.040;2022-11-22T08:49:49;26.70;;;20.98;;
57730;SDS011;43570;47.476;19.040;2022-11-22T08:52:14;24.25;;;20.58;;
57730;SDS011;43570;47.476;19.040;2022-11-22T08:54:39;26.10;;;21.55;;
57730;SDS011;43570;47.476;19.040;2022-11-22T08:57:05;26.48;;;21.85;;
57730;SDS011;43570;47.476;19.040;2022-11-22T08:59:30;25.50;;;21.40;;
57730;SDS011;43570;47.476;19.040;2022-11-22T09:01:56;24.70;;;19.52;;
57730;SDS011;43570;47.476;19.040;2022-11-22T09:04:21;26.87;;;21.75;;
57730;SDS011;43570;47.476;19.040;2022-11-22T09:06:47;24.48;;;20.23;;
57730;SDS011;43570;47.476;19.040;2022-11-22T09:09:12;24.80;;;20.83;;
57730;SDS011;43570;47.476;19.040;2022-11-22T09:11:37;27.90;;;20.73;;
57730;SDS011;43570;47.476;19.040;2022-11-22T09:14:03;25.98;;;21.37;;
57730;SDS011;43570;47.476;19.040;2022-11-22T09:16:28;26.27;;;21.20;;
57730;SDS011;43570;47.476;19.040;2022-11-22T09:18:53;25.05;;;20.50;;
57730;SDS011;43570;47.476;19.040;2022-11-22T09:21:19;25.45;;;21.02;;
57730;SDS011;43570;47.476;19.040;2022-11-22T09:23:45;28.48;;;21.67;;
57730;SDS011;43570;47.476;19.040;2022-11-22T09:26:13;28.38;;;21.37;;
57730;SDS011;43570;47.476;19.040;2022-11-22T09:28:40;28.65;;;22.15;;
57730;SDS011;43570;47.476;19.040;2022-11-22T09:31:06;28.65;;;22.10;;
57730;SDS011;43570;47.476;19.040;2022-11-22T09:33:33;30.30;;;23.40;;
57730;SDS011;43570;47.476;19.040;2022-11-22T09:36:01;28.33;;;23.23;;
57730;SDS011;43570;47.476;19.040;2022-11-22T09:38:29;29.90;;;24.23;;
57730;SDS011;43570;47.476;19.040;2022-11-22T09:40:55;29.58;;;22.42;;
57730;SDS011;43570;47.476;19.040;2022-11-22T09:48:56;28.05;;;22.65;;
57730;SDS011;43570;47.476;19.040;2022-11-22T09:51:27;29.98;;;23.08;;
57730;SDS011;43570;47.476;19.040;2022-11-22T09:53:57;32.60;;;25.87;;
57730;SDS011;43570;47.476;19.040;2022-11-22T09:56:27;28.42;;;23.80;;
57730;SDS011;43570;47.476;19.040;2022-11-22T09:58:54;28.45;;;22.75;;
57730;SDS011;43570;47.476;19.040;2022-11-22T10:01:26;30.17;;;23.90;;
57730;SDS011;43570;47.476;19.040;2022-11-22T10:04:03;27.48;;;22.95;;
57730;SDS011;43570;47.476;19.040;2022-11-22T10:06:38;30.15;;;23.75;;
57730;SDS011;43570;47.476;19.040;2022-11-22T10:12:01;30.33;;;24.35;;
57730;SDS011;43570;47.476;19.040;2022-11-22T10:14:35;31.73;;;24.83;;
57730;SDS011;43570;47.476;19.040;2022-11-22T10:18:09;28.33;;;23.20;;
57730;SDS011;43570;47.476;19.040;2022-11-22T10:20:19;30.40;;;23.65;;
57730;SDS011;43570;47.476;19.040;2022-11-22T10:22:49;28.38;;;23.27;;
57730;SDS011;43570;47.476;19.040;2022-11-22T10:25:21;30.73;;;24.50;;
57730;SDS011;43570;47.476;19.040;2022-11-22T10:27:52;28.40;;;23.60;;
57730;SDS011;43570;47.476;19.040;2022-11-22T10:30:22;30.90;;;23.73;;
57730;SDS011;43570;47.476;19.040;2022-11-22T10:32:57;28.58;;;23.85;;
57730;SDS011;43570;47.476;19.040;2022-11-22T10:38:31;29.02;;;23.70;;
57730;SDS011;43570;47.476;19.040;2022-11-22T10:46:53;32.42;;;25.80;;
57730;SDS011;43570;47.476;19.040;2022-11-22T10:49:23;31.12;;;24.33;;
57730;SDS011;43570;47.476;19.040;2022-11-22T10:52:20;33.35;;;26.23;;
57730;SDS011;43570;47.476;19.040;2022-11-22T10:54:54;31.17;;;25.20;;
57730;SDS011;43570;47.476;19.040;2022-11-22T10:57:44;32.78;;;26.12;;
57730;SDS011;43570;47.476;19.040;2022-11-22T11:00:23;34.17;;;27.48;;
57730;SDS011;43570;47.476;19.040;2022-11-22T11:02:56;33.03;;;26.75;;
57730;SDS011;43570;47.476;19.040;2022-11-22T11:06:03;34.10;;;26.83;;
57730;SDS011;43570;47.476;19.040;2022-11-22T11:08:50;31.00;;;25.58;;
57730;SDS011;43570;47.476;19.040;2022-11-22T11:11:19;32.67;;;27.67;;
57730;SDS011;43570;47.476;19.040;2022-11-22T11:13:46;34.70;;;27.92;;
57730;SDS011;43570;47.476;19.040;2022-11-22T11:16:16;31.00;;;25.55;;
57730;SDS011;43570;47.476;19.040;2022-11-22T11:18:46;32.83;;;26.40;;
57730;SDS011;43570;47.476;19.040;2022-11-22T11:21:19;30.85;;;25.95;;
57730;SDS011;43570;47.476;19.040;2022-11-22T11:23:45;30.58;;;26.08;;
57730;SDS011;43570;47.476;19.040;2022-11-22T11:26:30;32.70;;;26.83;;
57730;SDS011;43570;47.476;19.040;2022-11-22T11:31:48;30.50;;;25.70;;
57730;SDS011;43570;47.476;19.040;2022-11-22T11:34:21;32.20;;;26.87;;
57730;SDS011;43570;47.476;19.040;2022-11-22T11:36:51;28.73;;;25.10;;
57730;SDS011;43570;47.476;19.040;2022-11-22T11:39:36;28.60;;;24.70;;
57730;SDS011;43570;47.476;19.040;2022-11-22T11:42:20;29.35;;;25.17;;
57730;SDS011;43570;47.476;19.040;2022-11-22T11:44:50;32.17;;;27.62;;
57730;SDS011;43570;47.476;19.040;2022-11-22T11:47:16;30.52;;;27.23;;
57730;SDS011;43570;47.476;19.040;2022-11-22T11:49:49;29.65;;;26.23;;
57730;SDS011;43570;47.476;19.040;2022-11-22T11:52:19;30.42;;;26.70;;
57730;SDS011;43570;47.476;19.040;2022-11-22T11:54:47;34.10;;;28.27;;
57730;SDS011;43570;47.476;19.040;2022-11-22T11:57:30;33.90;;;28.08;;
57730;SDS011;43570;47.476;19.040;2022-11-22T11:59:58;39.83;;;30.80;;
57730;SDS011;43570;47.476;19.040;2022-11-22T12:04:58;35.83;;;30.77;;
57730;SDS011;43570;47.476;19.040;2022-11-22T12:07:26;36.15;;;30.52;;
57730;SDS011;43570;47.476;19.040;2022-11-22T12:09:58;42.05;;;31.20;;
57730;SDS011;43570;47.476;19.040;2022-11-22T12:14:50;38.13;;;31.80;;
57730;SDS011;43570;47.476;19.040;2022-11-22T12:17:26;41.10;;;30.52;;
57730;SDS011;43570;47.476;19.040;2022-11-22T12:19:58;37.72;;;30.70;;
57730;SDS011;43570;47.476;19.040;2022-11-22T12:22:33;38.47;;;30.98;;
57730;SDS011;43570;47.476;19.040;2022-11-22T12:25:25;37.45;;;31.10;;
57730;SDS011;43570;47.476;19.040;2022-11-22T12:27:58;39.65;;;32.28;;
57730;SDS011;43570;47.476;19.040;2022-11-22T12:30:27;37.38;;;32.45;;
57730;SDS011;43570;47.476;19.040;2022-11-22T12:32:56;41.60;;;32.58;;
57730;SDS011;43570;47.476;19.040;2022-11-22T12:35:25;42.15;;;31.45;;
57730;SDS011;43570;47.476;19.040;2022-11-22T12:37:52;37.10;;;30.73;;
57730;SDS011;43570;47.476;19.040;2022-11-22T12:40:22;37.47;;;31.23;;
57730;SDS011;43570;47.476;19.040;2022-11-22T12:42:50;41.42;;;33.97;;
57730;SDS011;43570;47.476;19.040;2022-11-22T12:45:33;43.40;;;33.58;;
57730;SDS011;43570;47.476;19.040;2022-11-22T12:48:02;42.80;;;32.92;;
57730;SDS011;43570;47.476;19.040;2022-11-22T12:53:04;41.75;;;34.90;;
57730;SDS011;43570;47.476;19.040;2022-11-22T12:55:44;41.63;;;32.17;;
57730;SDS011;43570;47.476;19.040;2022-11-22T12:58:16;40.42;;;33.03;;
57730;SDS011;43570;47.476;19.040;2022-11-22T13:01:04;41.90;;;33.65;;
57730;SDS011;43570;47.476;19.040;2022-11-22T13:03:36;39.42;;;32.65;;
57730;SDS011;43570;47.476;19.040;2022-11-22T13:06:06;41.25;;;31.33;;
57730;SDS011;43570;47.476;19.040;2022-11-22T13:11:28;36.55;;;30.48;;
57730;SDS011;43570;47.476;19.040;2022-11-22T13:14:02;36.75;;;30.98;;
57730;SDS011;43570;47.476;19.040;2022-11-22T13:16:30;41.05;;;31.50;;
57730;SDS011;43570;47.476;19.040;2022-11-22T13:18:57;38.90;;;31.83;;
57730;SDS011;43570;47.476;19.040;2022-11-22T13:24:30;34.75;;;28.65;;
57730;SDS011;43570;47.476;19.040;2022-11-22T13:27:23;34.22;;;28.55;;
57730;SDS011;43570;47.476;19.040;2022-11-22T13:29:54;31.33;;;26.65;;
57730;SDS011;43570;47.476;19.040;2022-11-22T13:32:21;34.47;;;27.33;;
57730;SDS011;43570;47.476;19.040;2022-11-22T13:37:31;31.00;;;26.27;;
57730;SDS011;43570;47.476;19.040;2022-11-22T13:53:30;32.03;;;25.42;;
57730;SDS011;43570;47.476;19.040;2022-11-22T13:55:58;33.85;;;25.50;;
57730;SDS011;43570;47.476;19.040;2022-11-22T14:01:07;30.58;;;25.42;;
57730;SDS011;43570;47.476;19.040;2022-11-22T14:04:01;31.60;;;25.55;;
57730;SDS011;43570;47.476;19.040;2022-11-22T14:09:39;32.55;;;26.35;;
57730;SDS011;43570;47.476;19.040;2022-11-22T14:12:29;33.28;;;25.62;;
57730;SDS011;43570;47.476;19.040;2022-11-22T14:21:16;33.20;;;25.83;;
57730;SDS011;43570;47.476;19.040;2022-11-22T14:32:20;30.60;;;23.85;;
57730;SDS011;43570;47.476;19.040;2022-11-22T14:47:38;31.90;;;25.65;;
57730;SDS011;43570;47.476;19.040;2022-11-22T14:52:34;29.37;;;24.67;;
57730;SDS011;43570;47.476;19.040;2022-11-22T14:55:04;31.40;;;24.83;;
57730;SDS011;43570;47.476;19.040;2022-11-22T15:00:02;30.25;;;24.55;;
57730;SDS011;43570;47.476;19.040;2022-11-22T15:07:56;33.47;;;25.67;;
57730;SDS011;43570;47.476;19.040;2022-11-22T15:13:36;32.17;;;25.62;;
57730;SDS011;43570;47.476;19.040;2022-11-22T15:16:09;30.73;;;25.20;;
57730;SDS011;43570;47.476;19.040;2022-11-22T15:18:39;30.98;;;26.08;;
57730;SDS011;43570;47.476;19.040;2022-11-22T15:23:50;30.15;;;23.98;;
57730;SDS011;43570;47.476;19.040;2022-11-22T15:26:16;31.10;;;24.55;;
57730;SDS011;43570;47.476;19.040;2022-11-22T15:28:46;30.75;;;24.52;;
57730;SDS011;43570;47.476;19.040;2022-11-22T15:31:19;31.60;;;26.08;;
57730;SDS011;43570;47.476;19.040;2022-11-22T15:33:47;29.65;;;25.17;;
57730;SDS011;43570;47.476;19.040;2022-11-22T15:39:03;33.55;;;25.30;;
57730;SDS011;43570;47.476;19.040;2022-11-22T15:41:30;31.40;;;24.60;;
57730;SDS011;43570;47.476;19.040;2022-11-22T15:43:58;30.12;;;24.27;;
57730;SDS011;43570;47.476;19.040;2022-11-22T15:46:24;31.08;;;24.23;;
57730;SDS011;43570;47.476;19.040;2022-11-22T15:48:50;27.30;;;23.50;;
57730;SDS011;43570;47.476;19.040;2022-11-22T15:51:18;26.62;;;22.15;;
57730;SDS011;43570;47.476;19.040;2022-11-22T15:59:06;30.70;;;24.37;;
57730;SDS011;43570;47.476;19.040;2022-11-22T16:04:01;29.48;;;24.42;;
57730;SDS011;43570;47.476;19.040;2022-11-22T16:06:27;31.60;;;25.05;;
57730;SDS011;43570;47.476;19.040;2022-11-22T16:08:55;29.60;;;23.75;;
57730;SDS011;43570;47.476;19.040;2022-11-22T16:11:28;30.02;;;25.23;;